sensor_id;sensor_type;location;lat;lon;timestamp;P1;durP1;ratioP1;P2;durP2;ratioP2
72354;SDS011;60314;55.040;73.076;2022-12-18T00:01:33;26.02;;;8.27;;
72354;SDS011;60314;55.040;73.076;2022-12-18T00:04:04;22.13;;;7.28;;
72354;SDS011;60314;55.040;73.076;2022-12-18T00:06:33;23.50;;;7.80;;
72354;SDS011;60314;55.040;73.076;2022-12-18T00:09:01;15.43;;;7.10;;
72354;SDS011;60314;55.040;73.076;2022-12-18T00:11:29;27.65;;;8.05;;
72354;SDS011;60314;55.040;73.076;2022-12-18T00:13:57;27.55;;;8.05;;
72354;SDS011;60314;55.040;73.076;2022-12-18T00:16:25;22.23;;;7.47;;
72354;SDS011;60314;55.040;73.076;2022-12-18T00:18:55;27.67;;;8.40;;
72354;SDS011;60314;55.040;73.076;2022-12-18T00:21:33;23.50;;;6.85;;
72354;SDS011;60314;55.040;73.076;2022-12-18T00:24:00;25.52;;;7.57;;
72354;SDS011;60314;55.040;73.076;2022-12-18T00:26:28;26.58;;;7.80;;
72354;SDS011;60314;55.040;73.076;2022-12-18T00:29:00;22.42;;;6.70;;
72354;SDS011;60314;55.040;73.076;2022-12-18T00:31:30;25.38;;;7.88;;
72354;SDS011;60314;55.040;73.076;2022-12-18T00:34:08;27.95;;;7.07;;
72354;SDS011;60314;55.040;73.076;2022-12-18T00:36:40;33.33;;;7.78;;
72354;SDS011;60314;55.040;73.076;2022-12-18T00:39:07;22.25;;;7.68;;
72354;SDS011;60314;55.040;73.076;2022-12-18T00:41:35;21.13;;;6.68;;
72354;SDS011;60314;55.040;73.076;2022-12-18T00:44:20;22.63;;;7.15;;
72354;SDS011;60314;55.040;73.076;2022-12-18T00:46:47;23.08;;;6.72;;
72354;SDS011;60314;55.040;73.076;2022-12-18T00:49:15;24.00;;;6.63;;
72354;SDS011;60314;55.040;73.076;2022-12-18T00:51:43;26.25;;;7.28;;
72354;SDS011;60314;55.040;73.076;2022-12-18T00:54:11;18.20;;;6.07;;
72354;SDS011;60314;55.040;73.076;2022-12-18T00:56:39;25.42;;;7.60;;
72354;SDS011;60314;55.040;73.076;2022-12-18T00:59:16;19.92;;;6.63;;
72354;SDS011;60314;55.040;73.076;2022-12-18T01:01:43;20.15;;;6.35;;
72354;SDS011;60314;55.040;73.076;2022-12-18T01:04:10;21.63;;;7.68;;
72354;SDS011;60314;55.040;73.076;2022-12-18T01:06:37;20.02;;;6.40;;
72354;SDS011;60314;55.040;73.076;2022-12-18T01:09:04;23.20;;;6.72;;
72354;SDS011;60314;55.040;73.076;2022-12-18T01:11:30;23.17;;;6.70;;
72354;SDS011;60314;55.040;73.076;2022-12-18T01:13:57;23.67;;;6.80;;
72354;SDS011;60314;55.040;73.076;2022-12-18T01:16:26;18.95;;;6.80;;
72354;SDS011;60314;55.040;73.076;2022-12-18T01:18:56;17.45;;;5.57;;
72354;SDS011;60314;55.040;73.076;2022-12-18T01:21:23;18.38;;;6.22;;
72354;SDS011;60314;55.040;73.076;2022-12-18T01:23:51;18.42;;;6.28;;
72354;SDS011;60314;55.040;73.076;2022-12-18T01:26:19;20.80;;;7.50;;
72354;SDS011;60314;55.040;73.076;2022-12-18T01:28:47;22.67;;;7.10;;
72354;SDS011;60314;55.040;73.076;2022-12-18T01:31:18;24.42;;;7.53;;
72354;SDS011;60314;55.040;73.076;2022-12-18T01:33:46;17.55;;;5.95;;
72354;SDS011;60314;55.040;73.076;2022-12-18T01:36:16;19.50;;;5.57;;
72354;SDS011;60314;55.040;73.076;2022-12-18T01:38:50;21.73;;;5.97;;
72354;SDS011;60314;55.040;73.076;2022-12-18T01:41:22;16.08;;;4.90;;
72354;SDS011;60314;55.040;73.076;2022-12-18T01:43:53;19.10;;;5.53;;
72354;SDS011;60314;55.040;73.076;2022-12-18T01:46:22;17.40;;;5.22;;
72354;SDS011;60314;55.040;73.076;2022-12-18T01:49:02;15.75;;;6.15;;
72354;SDS011;60314;55.040;73.076;2022-12-18T01:51:29;7.35;;;2.72;;
72354;SDS011;60314;55.040;73.076;2022-12-18T01:54:06;21.75;;;5.60;;
72354;SDS011;60314;55.040;73.076;2022-12-18T01:56:33;10.50;;;4.90;;
72354;SDS011;60314;55.040;73.076;2022-12-18T01:59:01;22.25;;;5.85;;
72354;SDS011;60314;55.040;73.076;2022-12-18T02:01:30;22.80;;;5.78;;
72354;SDS011;60314;55.040;73.076;2022-12-18T02:04:20;25.48;;;7.65;;
72354;SDS011;60314;55.040;73.076;2022-12-18T02:16:18;18.65;;;6.53;;
72354;SDS011;60314;55.040;73.076;2022-12-18T02:19:00;19.55;;;6.38;;
72354;SDS011;60314;55.040;73.076;2022-12-18T02:21:44;25.13;;;6.60;;
72354;SDS011;60314;55.040;73.076;2022-12-18T02:27:12;20.30;;;6.85;;
72354;SDS011;60314;55.040;73.076;2022-12-18T02:32:21;21.58;;;6.82;;
72354;SDS011;60314;55.040;73.076;2022-12-18T02:34:55;25.10;;;7.57;;
72354;SDS011;60314;55.040;73.076;2022-12-18T02:37:24;21.63;;;8.20;;
72354;SDS011;60314;55.040;73.076;2022-12-18T02:39:59;27.90;;;7.57;;
72354;SDS011;60314;55.040;73.076;2022-12-18T02:42:27;18.25;;;6.57;;
72354;SDS011;60314;55.040;73.076;2022-12-18T02:44:54;19.38;;;6.43;;
72354;SDS011;60314;55.040;73.076;2022-12-18T02:47:31;20.73;;;6.95;;
72354;SDS011;60314;55.040;73.076;2022-12-18T02:50:07;21.15;;;7.80;;
72354;SDS011;60314;55.040;73.076;2022-12-18T02:58:51;25.00;;;7.45;;
72354;SDS011;60314;55.040;73.076;2022-12-18T03:06:57;23.98;;;6.80;;
72354;SDS011;60314;55.040;73.076;2022-12-18T03:09:29;27.00;;;8.30;;
72354;SDS011;60314;55.040;73.076;2022-12-18T03:15:03;19.33;;;6.28;;
72354;SDS011;60314;55.040;73.076;2022-12-18T03:17:42;21.75;;;6.28;;
72354;SDS011;60314;55.040;73.076;2022-12-18T03:20:15;18.10;;;7.03;;
72354;SDS011;60314;55.040;73.076;2022-12-18T03:25:14;19.58;;;7.43;;
72354;SDS011;60314;55.040;73.076;2022-12-18T03:27:45;26.73;;;7.35;;
72354;SDS011;60314;55.040;73.076;2022-12-18T03:30:21;24.13;;;8.00;;
72354;SDS011;60314;55.040;73.076;2022-12-18T03:32:56;23.88;;;7.47;;
72354;SDS011;60314;55.040;73.076;2022-12-18T03:35:40;24.33;;;7.27;;
72354;SDS011;60314;55.040;73.076;2022-12-18T03:38:20;27.88;;;8.50;;
72354;SDS011;60314;55.040;73.076;2022-12-18T03:40:59;20.77;;;7.40;;
72354;SDS011;60314;55.040;73.076;2022-12-18T03:49:16;26.50;;;7.75;;
72354;SDS011;60314;55.040;73.076;2022-12-18T03:51:57;21.42;;;7.03;;
72354;SDS011;60314;55.040;73.076;2022-12-18T03:54:27;23.20;;;6.78;;
72354;SDS011;60314;55.040;73.076;2022-12-18T03:57:06;21.65;;;7.53;;
72354;SDS011;60314;55.040;73.076;2022-12-18T03:59:37;26.58;;;8.38;;
72354;SDS011;60314;55.040;73.076;2022-12-18T04:02:07;24.92;;;7.22;;
72354;SDS011;60314;55.040;73.076;2022-12-18T04:04:35;26.50;;;9.27;;
72354;SDS011;60314;55.040;73.076;2022-12-18T04:07:05;27.05;;;9.05;;
72354;SDS011;60314;55.040;73.076;2022-12-18T04:09:34;28.42;;;8.35;;
72354;SDS011;60314;55.040;73.076;2022-12-18T04:12:03;31.27;;;8.70;;
72354;SDS011;60314;55.040;73.076;2022-12-18T04:14:30;26.25;;;8.57;;
72354;SDS011;60314;55.040;73.076;2022-12-18T04:17:03;32.80;;;10.20;;
72354;SDS011;60314;55.040;73.076;2022-12-18T04:19:32;15.93;;;6.72;;
72354;SDS011;60314;55.040;73.076;2022-12-18T04:21:59;29.77;;;10.30;;
72354;SDS011;60314;55.040;73.076;2022-12-18T04:24:27;33.13;;;9.23;;
72354;SDS011;60314;55.040;73.076;2022-12-18T04:27:04;30.98;;;10.63;;
72354;SDS011;60314;55.040;73.076;2022-12-18T04:29:38;28.20;;;8.57;;
72354;SDS011;60314;55.040;73.076;2022-12-18T04:32:05;36.13;;;11.23;;
72354;SDS011;60314;55.040;73.076;2022-12-18T04:34:33;27.92;;;9.32;;
72354;SDS011;60314;55.040;73.076;2022-12-18T04:37:09;29.05;;;9.32;;
72354;SDS011;60314;55.040;73.076;2022-12-18T04:39:38;24.55;;;9.75;;
72354;SDS011;60314;55.040;73.076;2022-12-18T04:42:11;32.55;;;9.00;;
72354;SDS011;60314;55.040;73.076;2022-12-18T04:47:09;36.05;;;9.30;;
72354;SDS011;60314;55.040;73.076;2022-12-18T04:49:36;30.13;;;10.20;;
72354;SDS011;60314;55.040;73.076;2022-12-18T04:52:03;24.80;;;9.88;;
72354;SDS011;60314;55.040;73.076;2022-12-18T04:54:32;32.85;;;10.00;;
72354;SDS011;60314;55.040;73.076;2022-12-18T04:56:59;29.15;;;9.50;;
72354;SDS011;60314;55.040;73.076;2022-12-18T04:59:26;30.48;;;10.57;;
72354;SDS011;60314;55.040;73.076;2022-12-18T05:01:52;32.28;;;9.15;;
72354;SDS011;60314;55.040;73.076;2022-12-18T05:04:19;33.30;;;8.20;;
72354;SDS011;60314;55.040;73.076;2022-12-18T05:06:46;26.77;;;8.52;;
72354;SDS011;60314;55.040;73.076;2022-12-18T05:09:13;21.95;;;7.47;;
72354;SDS011;60314;55.040;73.076;2022-12-18T05:11:39;26.92;;;7.68;;
72354;SDS011;60314;55.040;73.076;2022-12-18T05:14:06;23.30;;;8.63;;
72354;SDS011;60314;55.040;73.076;2022-12-18T05:16:32;36.60;;;10.63;;
72354;SDS011;60314;55.040;73.076;2022-12-18T05:18:59;23.52;;;8.60;;
72354;SDS011;60314;55.040;73.076;2022-12-18T05:21:26;33.45;;;8.77;;
72354;SDS011;60314;55.040;73.076;2022-12-18T05:23:52;38.38;;;9.93;;
72354;SDS011;60314;55.040;73.076;2022-12-18T05:26:19;32.30;;;9.05;;
72354;SDS011;60314;55.040;73.076;2022-12-18T05:28:45;34.72;;;10.68;;
72354;SDS011;60314;55.040;73.076;2022-12-18T05:31:13;27.48;;;8.68;;
72354;SDS011;60314;55.040;73.076;2022-12-18T05:33:49;26.23;;;10.00;;
72354;SDS011;60314;55.040;73.076;2022-12-18T05:36:16;29.67;;;8.50;;
72354;SDS011;60314;55.040;73.076;2022-12-18T05:38:43;25.48;;;8.02;;
72354;SDS011;60314;55.040;73.076;2022-12-18T05:41:09;25.20;;;8.85;;
72354;SDS011;60314;55.040;73.076;2022-12-18T05:43:36;30.02;;;9.50;;
72354;SDS011;60314;55.040;73.076;2022-12-18T05:46:04;29.80;;;10.15;;
72354;SDS011;60314;55.040;73.076;2022-12-18T05:48:32;27.67;;;8.63;;
72354;SDS011;60314;55.040;73.076;2022-12-18T05:51:09;18.77;;;6.90;;
72354;SDS011;60314;55.040;73.076;2022-12-18T05:53:38;27.33;;;9.70;;
72354;SDS011;60314;55.040;73.076;2022-12-18T05:56:06;28.80;;;10.30;;
72354;SDS011;60314;55.040;73.076;2022-12-18T05:58:34;33.70;;;10.55;;
72354;SDS011;60314;55.040;73.076;2022-12-18T06:01:08;36.45;;;11.52;;
72354;SDS011;60314;55.040;73.076;2022-12-18T06:03:38;34.22;;;10.32;;
72354;SDS011;60314;55.040;73.076;2022-12-18T06:06:12;35.42;;;12.02;;
72354;SDS011;60314;55.040;73.076;2022-12-18T06:08:43;34.45;;;11.45;;
72354;SDS011;60314;55.040;73.076;2022-12-18T06:11:10;37.25;;;11.23;;
72354;SDS011;60314;55.040;73.076;2022-12-18T06:13:36;28.73;;;10.63;;
72354;SDS011;60314;55.040;73.076;2022-12-18T06:16:13;37.17;;;11.77;;
72354;SDS011;60314;55.040;73.076;2022-12-18T06:18:45;30.75;;;10.00;;
72354;SDS011;60314;55.040;73.076;2022-12-18T06:21:12;29.00;;;10.13;;
72354;SDS011;60314;55.040;73.076;2022-12-18T06:23:38;39.65;;;10.93;;
72354;SDS011;60314;55.040;73.076;2022-12-18T06:26:06;29.95;;;11.05;;
72354;SDS011;60314;55.040;73.076;2022-12-18T06:28:35;32.88;;;10.95;;
72354;SDS011;60314;55.040;73.076;2022-12-18T06:31:05;32.05;;;12.38;;
72354;SDS011;60314;55.040;73.076;2022-12-18T06:33:32;29.10;;;11.40;;
72354;SDS011;60314;55.040;73.076;2022-12-18T06:36:03;35.03;;;11.88;;
72354;SDS011;60314;55.040;73.076;2022-12-18T06:38:33;32.40;;;11.40;;
72354;SDS011;60314;55.040;73.076;2022-12-18T06:41:06;36.03;;;12.07;;
72354;SDS011;60314;55.040;73.076;2022-12-18T06:43:43;32.42;;;12.00;;
72354;SDS011;60314;55.040;73.076;2022-12-18T06:46:10;31.85;;;10.52;;
72354;SDS011;60314;55.040;73.076;2022-12-18T06:48:46;33.42;;;11.30;;
72354;SDS011;60314;55.040;73.076;2022-12-18T06:51:24;38.42;;;12.10;;
72354;SDS011;60314;55.040;73.076;2022-12-18T06:53:51;33.85;;;12.18;;
72354;SDS011;60314;55.040;73.076;2022-12-18T06:56:28;30.10;;;10.80;;
72354;SDS011;60314;55.040;73.076;2022-12-18T06:58:54;38.08;;;11.85;;
72354;SDS011;60314;55.040;73.076;2022-12-18T07:01:26;33.28;;;11.65;;
72354;SDS011;60314;55.040;73.076;2022-12-18T07:03:53;35.03;;;11.35;;
72354;SDS011;60314;55.040;73.076;2022-12-18T07:06:26;36.75;;;11.38;;
72354;SDS011;60314;55.040;73.076;2022-12-18T07:08:53;25.95;;;9.70;;
72354;SDS011;60314;55.040;73.076;2022-12-18T07:11:20;25.92;;;11.10;;
72354;SDS011;60314;55.040;73.076;2022-12-18T07:13:57;27.70;;;11.07;;
72354;SDS011;60314;55.040;73.076;2022-12-18T07:16:26;38.55;;;13.07;;
72354;SDS011;60314;55.040;73.076;2022-12-18T07:18:54;39.70;;;11.63;;
72354;SDS011;60314;55.040;73.076;2022-12-18T07:21:22;30.83;;;12.27;;
72354;SDS011;60314;55.040;73.076;2022-12-18T07:23:50;46.50;;;16.48;;
72354;SDS011;60314;55.040;73.076;2022-12-18T07:26:24;38.72;;;13.88;;
72354;SDS011;60314;55.040;73.076;2022-12-18T07:28:59;48.95;;;12.05;;
72354;SDS011;60314;55.040;73.076;2022-12-18T07:31:26;29.50;;;11.38;;
72354;SDS011;60314;55.040;73.076;2022-12-18T07:33:55;33.28;;;9.95;;
72354;SDS011;60314;55.040;73.076;2022-12-18T07:36:21;30.85;;;11.60;;
72354;SDS011;60314;55.040;73.076;2022-12-18T07:38:48;35.50;;;12.80;;
72354;SDS011;60314;55.040;73.076;2022-12-18T07:41:17;41.15;;;13.95;;
72354;SDS011;60314;55.040;73.076;2022-12-18T07:43:54;32.05;;;10.93;;
72354;SDS011;60314;55.040;73.076;2022-12-18T07:46:31;28.58;;;10.80;;
72354;SDS011;60314;55.040;73.076;2022-12-18T07:48:57;35.50;;;10.40;;
72354;SDS011;60314;55.040;73.076;2022-12-18T07:51:24;30.63;;;11.45;;
72354;SDS011;60314;55.040;73.076;2022-12-18T07:54:01;36.50;;;12.43;;
72354;SDS011;60314;55.040;73.076;2022-12-18T07:56:28;33.83;;;11.48;;
72354;SDS011;60314;55.040;73.076;2022-12-18T07:58:54;32.47;;;11.43;;
72354;SDS011;60314;55.040;73.076;2022-12-18T08:01:21;42.58;;;14.02;;
72354;SDS011;60314;55.040;73.076;2022-12-18T08:03:47;32.65;;;12.13;;
72354;SDS011;60314;55.040;73.076;2022-12-18T08:06:14;32.97;;;12.00;;
72354;SDS011;60314;55.040;73.076;2022-12-18T08:08:40;40.05;;;13.13;;
72354;SDS011;60314;55.040;73.076;2022-12-18T08:11:12;36.95;;;13.52;;
72354;SDS011;60314;55.040;73.076;2022-12-18T08:13:48;39.80;;;14.10;;
72354;SDS011;60314;55.040;73.076;2022-12-18T08:16:16;28.55;;;11.73;;
72354;SDS011;60314;55.040;73.076;2022-12-18T08:18:44;37.88;;;13.20;;
72354;SDS011;60314;55.040;73.076;2022-12-18T08:21:12;41.90;;;13.15;;
72354;SDS011;60314;55.040;73.076;2022-12-18T08:23:42;37.10;;;12.88;;
72354;SDS011;60314;55.040;73.076;2022-12-18T08:26:19;36.35;;;13.60;;
72354;SDS011;60314;55.040;73.076;2022-12-18T08:28:47;36.13;;;12.93;;
72354;SDS011;60314;55.040;73.076;2022-12-18T08:31:20;39.35;;;12.70;;
72354;SDS011;60314;55.040;73.076;2022-12-18T08:33:52;38.63;;;13.57;;
72354;SDS011;60314;55.040;73.076;2022-12-18T08:36:19;40.47;;;12.88;;
72354;SDS011;60314;55.040;73.076;2022-12-18T08:38:46;40.08;;;13.82;;
72354;SDS011;60314;55.040;73.076;2022-12-18T08:41:24;39.40;;;12.60;;
72354;SDS011;60314;55.040;73.076;2022-12-18T08:43:50;39.78;;;12.40;;
72354;SDS011;60314;55.040;73.076;2022-12-18T08:46:36;34.38;;;12.32;;
72354;SDS011;60314;55.040;73.076;2022-12-18T08:49:05;32.55;;;12.35;;
72354;SDS011;60314;55.040;73.076;2022-12-18T08:51:32;40.80;;;13.48;;
72354;SDS011;60314;55.040;73.076;2022-12-18T08:53:59;36.00;;;11.65;;
72354;SDS011;60314;55.040;73.076;2022-12-18T08:56:26;33.28;;;12.07;;
72354;SDS011;60314;55.040;73.076;2022-12-18T08:58:53;32.72;;;12.93;;
72354;SDS011;60314;55.040;73.076;2022-12-18T09:01:20;44.75;;;13.57;;
72354;SDS011;60314;55.040;73.076;2022-12-18T09:03:48;39.65;;;12.82;;
72354;SDS011;60314;55.040;73.076;2022-12-18T09:06:21;41.40;;;12.77;;
72354;SDS011;60314;55.040;73.076;2022-12-18T09:08:48;35.00;;;12.82;;
72354;SDS011;60314;55.040;73.076;2022-12-18T09:11:19;34.28;;;12.40;;
72354;SDS011;60314;55.040;73.076;2022-12-18T09:13:50;35.08;;;12.57;;
72354;SDS011;60314;55.040;73.076;2022-12-18T09:16:17;32.28;;;12.60;;
72354;SDS011;60314;55.040;73.076;2022-12-18T09:18:45;37.20;;;11.55;;
72354;SDS011;60314;55.040;73.076;2022-12-18T09:21:13;29.80;;;11.75;;
72354;SDS011;60314;55.040;73.076;2022-12-18T09:23:50;32.72;;;11.60;;
72354;SDS011;60314;55.040;73.076;2022-12-18T09:26:17;30.83;;;10.52;;
72354;SDS011;60314;55.040;73.076;2022-12-18T09:28:44;34.28;;;12.20;;
72354;SDS011;60314;55.040;73.076;2022-12-18T09:31:16;32.67;;;11.13;;
72354;SDS011;60314;55.040;73.076;2022-12-18T09:33:44;33.20;;;10.88;;
72354;SDS011;60314;55.040;73.076;2022-12-18T09:36:12;36.10;;;11.55;;
72354;SDS011;60314;55.040;73.076;2022-12-18T09:38:40;29.42;;;11.25;;
72354;SDS011;60314;55.040;73.076;2022-12-18T09:41:17;31.42;;;10.32;;
72354;SDS011;60314;55.040;73.076;2022-12-18T09:44:13;34.28;;;13.23;;
72354;SDS011;60314;55.040;73.076;2022-12-18T09:46:49;32.35;;;10.98;;
72354;SDS011;60314;55.040;73.076;2022-12-18T09:49:21;35.80;;;10.85;;
72354;SDS011;60314;55.040;73.076;2022-12-18T09:52:00;38.45;;;13.05;;
72354;SDS011;60314;55.040;73.076;2022-12-18T09:54:40;24.73;;;10.65;;
72354;SDS011;60314;55.040;73.076;2022-12-18T09:57:21;31.10;;;11.85;;
72354;SDS011;60314;55.040;73.076;2022-12-18T09:59:53;30.58;;;11.57;;
72354;SDS011;60314;55.040;73.076;2022-12-18T10:02:30;32.25;;;11.95;;
72354;SDS011;60314;55.040;73.076;2022-12-18T10:07:52;32.83;;;12.50;;
72354;SDS011;60314;55.040;73.076;2022-12-18T10:10:32;34.28;;;12.70;;
72354;SDS011;60314;55.040;73.076;2022-12-18T10:13:18;35.70;;;13.75;;
72354;SDS011;60314;55.040;73.076;2022-12-18T10:15:54;25.50;;;10.52;;
72354;SDS011;60314;55.040;73.076;2022-12-18T10:21:18;32.45;;;11.95;;
72354;SDS011;60314;55.040;73.076;2022-12-18T10:23:54;42.60;;;13.40;;
72354;SDS011;60314;55.040;73.076;2022-12-18T10:26:25;36.45;;;12.13;;
72354;SDS011;60314;55.040;73.076;2022-12-18T10:28:51;36.85;;;13.15;;
72354;SDS011;60314;55.040;73.076;2022-12-18T10:31:21;36.83;;;13.73;;
72354;SDS011;60314;55.040;73.076;2022-12-18T10:33:49;43.00;;;14.57;;
72354;SDS011;60314;55.040;73.076;2022-12-18T10:36:16;47.45;;;15.85;;
72354;SDS011;60314;55.040;73.076;2022-12-18T10:38:42;38.95;;;15.00;;
72354;SDS011;60314;55.040;73.076;2022-12-18T10:44:14;40.97;;;14.70;;
72354;SDS011;60314;55.040;73.076;2022-12-18T10:46:44;36.00;;;12.20;;
72354;SDS011;60314;55.040;73.076;2022-12-18T10:49:25;43.25;;;14.50;;
72354;SDS011;60314;55.040;73.076;2022-12-18T10:54:54;30.85;;;13.55;;
72354;SDS011;60314;55.040;73.076;2022-12-18T10:57:30;34.92;;;12.95;;
72354;SDS011;60314;55.040;73.076;2022-12-18T11:03:58;32.70;;;11.57;;
72354;SDS011;60314;55.040;73.076;2022-12-18T11:06:12;31.30;;;10.63;;
72354;SDS011;60314;55.040;73.076;2022-12-18T11:08:42;33.97;;;10.85;;
72354;SDS011;60314;55.040;73.076;2022-12-18T11:11:20;35.45;;;11.35;;
72354;SDS011;60314;55.040;73.076;2022-12-18T11:13:58;34.28;;;11.73;;
72354;SDS011;60314;55.040;73.076;2022-12-18T11:16:45;35.47;;;11.07;;
72354;SDS011;60314;55.040;73.076;2022-12-18T11:19:28;35.58;;;12.25;;
72354;SDS011;60314;55.040;73.076;2022-12-18T11:22:01;31.10;;;10.55;;
72354;SDS011;60314;55.040;73.076;2022-12-18T11:27:02;35.97;;;11.02;;
72354;SDS011;60314;55.040;73.076;2022-12-18T11:29:36;26.38;;;9.85;;
72354;SDS011;60314;55.040;73.076;2022-12-18T11:34:42;33.85;;;10.45;;
72354;SDS011;60314;55.040;73.076;2022-12-18T11:37:15;28.65;;;10.05;;
72354;SDS011;60314;55.040;73.076;2022-12-18T11:39:49;25.10;;;9.40;;
72354;SDS011;60314;55.040;73.076;2022-12-18T11:42:23;31.15;;;10.10;;
72354;SDS011;60314;55.040;73.076;2022-12-18T11:44:58;37.65;;;11.63;;
72354;SDS011;60314;55.040;73.076;2022-12-18T11:47:37;22.65;;;9.52;;
72354;SDS011;60314;55.040;73.076;2022-12-18T11:50:24;30.40;;;10.05;;
72354;SDS011;60314;55.040;73.076;2022-12-18T11:53:10;30.48;;;10.45;;
72354;SDS011;60314;55.040;73.076;2022-12-18T11:58:17;29.05;;;10.10;;
72354;SDS011;60314;55.040;73.076;2022-12-18T12:06:28;36.95;;;11.13;;
72354;SDS011;60314;55.040;73.076;2022-12-18T12:17:22;31.33;;;11.48;;
72354;SDS011;60314;55.040;73.076;2022-12-18T12:22:49;35.90;;;13.48;;
72354;SDS011;60314;55.040;73.076;2022-12-18T12:39:44;40.10;;;13.00;;
72354;SDS011;60314;55.040;73.076;2022-12-18T12:42:26;41.38;;;11.07;;
72354;SDS011;60314;55.040;73.076;2022-12-18T12:45:24;33.65;;;12.75;;
72354;SDS011;60314;55.040;73.076;2022-12-18T12:48:02;35.05;;;13.27;;
72354;SDS011;60314;55.040;73.076;2022-12-18T12:50:33;41.50;;;14.50;;
72354;SDS011;60314;55.040;73.076;2022-12-18T12:53:05;41.28;;;13.40;;
72354;SDS011;60314;55.040;73.076;2022-12-18T12:55:34;52.45;;;14.95;;
72354;SDS011;60314;55.040;73.076;2022-12-18T13:00:58;48.15;;;15.70;;
72354;SDS011;60314;55.040;73.076;2022-12-18T13:06:50;38.08;;;14.50;;
72354;SDS011;60314;55.040;73.076;2022-12-18T13:09:21;40.40;;;14.70;;
72354;SDS011;60314;55.040;73.076;2022-12-18T13:11:48;44.85;;;15.32;;
72354;SDS011;60314;55.040;73.076;2022-12-18T13:14:37;40.15;;;14.77;;
72354;SDS011;60314;55.040;73.076;2022-12-18T13:20:07;39.90;;;15.48;;
72354;SDS011;60314;55.040;73.076;2022-12-18T13:22:44;42.35;;;14.38;;
72354;SDS011;60314;55.040;73.076;2022-12-18T13:25:28;42.03;;;14.63;;
72354;SDS011;60314;55.040;73.076;2022-12-18T13:28:00;46.13;;;15.32;;
72354;SDS011;60314;55.040;73.076;2022-12-18T13:30:56;43.75;;;14.85;;
72354;SDS011;60314;55.040;73.076;2022-12-18T13:36:02;40.15;;;14.35;;
72354;SDS011;60314;55.040;73.076;2022-12-18T13:41:45;43.03;;;15.50;;
72354;SDS011;60314;55.040;73.076;2022-12-18T13:47:00;52.58;;;15.48;;
72354;SDS011;60314;55.040;73.076;2022-12-18T13:49:38;40.92;;;15.10;;
72354;SDS011;60314;55.040;73.076;2022-12-18T13:52:16;38.60;;;14.80;;
72354;SDS011;60314;55.040;73.076;2022-12-18T13:54:56;45.42;;;15.63;;
72354;SDS011;60314;55.040;73.076;2022-12-18T13:59:56;42.90;;;14.02;;
72354;SDS011;60314;55.040;73.076;2022-12-18T14:02:24;36.45;;;14.45;;
72354;SDS011;60314;55.040;73.076;2022-12-18T14:04:52;40.40;;;13.70;;
72354;SDS011;60314;55.040;73.076;2022-12-18T14:09:46;41.47;;;14.77;;
72354;SDS011;60314;55.040;73.076;2022-12-18T14:12:24;42.67;;;14.70;;
72354;SDS011;60314;55.040;73.076;2022-12-18T14:17:55;42.47;;;13.57;;
72354;SDS011;60314;55.040;73.076;2022-12-18T14:20:27;42.33;;;14.10;;
72354;SDS011;60314;55.040;73.076;2022-12-18T14:23:01;42.45;;;15.00;;
72354;SDS011;60314;55.040;73.076;2022-12-18T14:25:28;41.42;;;14.57;;
72354;SDS011;60314;55.040;73.076;2022-12-18T14:28:08;36.08;;;13.55;;
72354;SDS011;60314;55.040;73.076;2022-12-18T14:30:45;37.33;;;13.38;;
72354;SDS011;60314;55.040;73.076;2022-12-18T14:33:26;35.63;;;13.65;;
72354;SDS011;60314;55.040;73.076;2022-12-18T14:35:55;38.60;;;13.23;;
72354;SDS011;60314;55.040;73.076;2022-12-18T14:41:14;34.50;;;13.90;;
72354;SDS011;60314;55.040;73.076;2022-12-18T14:43:43;39.35;;;13.25;;
72354;SDS011;60314;55.040;73.076;2022-12-18T14:48:59;37.95;;;13.93;;
72354;SDS011;60314;55.040;73.076;2022-12-18T14:51:36;44.55;;;14.13;;
72354;SDS011;60314;55.040;73.076;2022-12-18T14:54:04;39.55;;;14.23;;
72354;SDS011;60314;55.040;73.076;2022-12-18T14:56:44;45.28;;;14.50;;
72354;SDS011;60314;55.040;73.076;2022-12-18T15:01:47;30.35;;;11.00;;
72354;SDS011;60314;55.040;73.076;2022-12-18T15:09:30;35.35;;;12.38;;
72354;SDS011;60314;55.040;73.076;2022-12-18T15:11:58;37.00;;;12.82;;
72354;SDS011;60314;55.040;73.076;2022-12-18T15:17:17;31.05;;;11.30;;
72354;SDS011;60314;55.040;73.076;2022-12-18T15:19:52;41.63;;;13.27;;
72354;SDS011;60314;55.040;73.076;2022-12-18T15:22:27;41.08;;;13.82;;
72354;SDS011;60314;55.040;73.076;2022-12-18T15:25:02;45.97;;;14.95;;
72354;SDS011;60314;55.040;73.076;2022-12-18T15:27:47;39.70;;;15.00;;
72354;SDS011;60314;55.040;73.076;2022-12-18T15:30:18;38.42;;;14.85;;
72354;SDS011;60314;55.040;73.076;2022-12-18T15:36:04;41.50;;;14.05;;
72354;SDS011;60314;55.040;73.076;2022-12-18T15:38:47;39.78;;;14.15;;
72354;SDS011;60314;55.040;73.076;2022-12-18T15:41:19;36.85;;;13.98;;
72354;SDS011;60314;55.040;73.076;2022-12-18T15:43:47;40.73;;;14.73;;
72354;SDS011;60314;55.040;73.076;2022-12-18T15:46:18;39.97;;;14.40;;
72354;SDS011;60314;55.040;73.076;2022-12-18T15:48:55;38.72;;;14.23;;
72354;SDS011;60314;55.040;73.076;2022-12-18T15:51:23;41.45;;;15.40;;
72354;SDS011;60314;55.040;73.076;2022-12-18T15:53:54;38.53;;;15.43;;
72354;SDS011;60314;55.040;73.076;2022-12-18T15:56:22;42.10;;;15.05;;
72354;SDS011;60314;55.040;73.076;2022-12-18T15:59:14;41.53;;;15.90;;
72354;SDS011;60314;55.040;73.076;2022-12-18T16:01:49;45.78;;;15.75;;
72354;SDS011;60314;55.040;73.076;2022-12-18T16:04:19;42.33;;;15.25;;
72354;SDS011;60314;55.040;73.076;2022-12-18T16:06:47;44.08;;;14.85;;
72354;SDS011;60314;55.040;73.076;2022-12-18T16:09:14;43.92;;;15.98;;
72354;SDS011;60314;55.040;73.076;2022-12-18T16:11:41;50.85;;;17.67;;
72354;SDS011;60314;55.040;73.076;2022-12-18T16:16:41;54.13;;;17.55;;
72354;SDS011;60314;55.040;73.076;2022-12-18T16:19:13;52.92;;;18.50;;
72354;SDS011;60314;55.040;73.076;2022-12-18T16:21:50;59.10;;;18.15;;
72354;SDS011;60314;55.040;73.076;2022-12-18T16:24:27;44.00;;;16.60;;
72354;SDS011;60314;55.040;73.076;2022-12-18T16:26:56;52.55;;;16.70;;
72354;SDS011;60314;55.040;73.076;2022-12-18T16:29:25;50.80;;;15.65;;
72354;SDS011;60314;55.040;73.076;2022-12-18T16:31:56;47.45;;;15.93;;
72354;SDS011;60314;55.040;73.076;2022-12-18T16:34:25;49.05;;;15.95;;
72354;SDS011;60314;55.040;73.076;2022-12-18T16:36:58;44.85;;;14.73;;
72354;SDS011;60314;55.040;73.076;2022-12-18T16:39:26;48.10;;;15.45;;
72354;SDS011;60314;55.040;73.076;2022-12-18T16:41:57;40.33;;;14.25;;
72354;SDS011;60314;55.040;73.076;2022-12-18T16:44:29;44.05;;;14.18;;
72354;SDS011;60314;55.040;73.076;2022-12-18T16:46:56;40.03;;;13.40;;
72354;SDS011;60314;55.040;73.076;2022-12-18T16:49:27;42.03;;;13.68;;
72354;SDS011;60314;55.040;73.076;2022-12-18T16:51:54;42.70;;;12.98;;
72354;SDS011;60314;55.040;73.076;2022-12-18T16:54:26;36.40;;;13.17;;
72354;SDS011;60314;55.040;73.076;2022-12-18T16:56:55;41.45;;;13.15;;
72354;SDS011;60314;55.040;73.076;2022-12-18T16:59:22;42.75;;;14.70;;
72354;SDS011;60314;55.040;73.076;2022-12-18T17:01:49;38.90;;;13.07;;